Time;durP1;ratioP1;P1;durP2;ratioP2;P2;SDS_P1;SDS_P2;PMS_P1;PMS_P2;Temp;Humidity;BMP_temperature;BMP_pressure;BME280_temperature;BME280_humidity;BME280_pressure;Samples;Min_cycle;Max_cycle;Signal;HPM_P1;HPM_P2
2022/11/25 00:01:25;;;;;;;8.85;7.15;;;4.60;1.00;;;;;;5093113;27;20205;-83
2022/11/25 00:03:55;;;;;;;7.30;6.32;;;4.50;99.90;;;;;;5097225;27;20238;-81
2022/11/25 00:06:25;;;;;;;8.13;6.83;;;4.50;1.00;;;;;;5096771;28;20195;-82
2022/11/25 00:08:55;;;;;;;6.85;6.25;;;4.50;99.90;;;;;;5097927;27;20481;-83
2022/11/25 00:11:23;;;;;;;6.00;5.43;;;4.40;99.90;;;;;;5085888;28;20224;-83
2022/11/25 00:13:52;;;;;;;5.63;5.13;;;4.50;1.00;;;;;;5084660;28;20642;-83
2022/11/25 00:16:23;;;;;;;6.27;5.67;;;4.50;99.90;;;;;;5086358;27;20458;-81
2022/11/25 00:18:53;;;;;;;6.18;5.57;;;4.40;99.90;;;;;;5084382;27;20888;-81
2022/11/25 00:21:23;;;;;;;5.50;5.00;;;4.50;99.90;;;;;;5088204;28;20192;-80
2022/11/25 00:23:53;;;;;;;6.57;6.07;;;4.70;99.90;;;;;;5088015;28;20466;-80
2022/11/25 00:26:22;;;;;;;7.05;5.28;;;4.60;1.00;;;;;;5090241;28;20200;-82
2022/11/25 00:28:52;;;;;;;6.20;5.60;;;4.70;1.00;;;;;;5093163;28;20203;-81
2022/11/25 00:31:23;;;;;;;5.80;5.20;;;4.80;99.90;;;;;;5091880;27;20444;-80
2022/11/25 00:33:52;;;;;;;7.60;4.87;;;4.90;11.90;;;;;;5094626;27;20581;-81
2022/11/25 00:36:22;;;;;;;6.00;5.60;;;5.20;99.90;;;;;;5097495;27;21144;-81
2022/11/25 00:38:54;;;;;;;5.77;5.23;;;5.40;99.90;;;;;;5091534;28;20446;-80
2022/11/25 00:46:57;;;;;;;5.83;5.37;;;5.20;1.00;;;;;;5091844;28;20992;-81
2022/11/25 00:49:25;;;;;;;7.30;5.97;;;5.00;1.00;;;;;;5088355;27;20476;-81
2022/11/25 00:51:54;;;;;;;4.97;4.57;;;5.10;99.90;;;;;;5092220;28;20456;-79
2022/11/25 00:54:22;;;;;;;5.73;5.23;;;5.10;1.00;;;;;;5090793;28;21210;-80
2022/11/25 00:56:51;;;;;;;5.43;5.00;;;5.20;99.90;;;;;;5098945;27;20465;-81
2022/11/25 00:59:19;;;;;;;5.37;5.07;;;5.50;1.00;;;;;;5093233;28;20464;-82
2022/11/25 01:01:47;;;;;;;5.60;5.20;;;5.60;99.90;;;;;;5093702;28;20445;-82
2022/11/25 01:04:17;;;;;;;5.83;5.43;;;5.80;99.90;;;;;;5092934;28;20513;-82
2022/11/25 01:06:46;;;;;;;5.33;4.97;;;5.90;99.90;;;;;;5089791;27;20461;-82
2022/11/25 01:09:14;;;;;;;5.73;5.40;;;5.90;98.70;;;;;;5091247;28;21034;-82
2022/11/25 01:11:42;;;;;;;5.57;5.27;;;6.00;8.50;;;;;;5093824;27;20561;-81
2022/11/25 01:14:10;;;;;;;6.07;5.67;;;6.00;1.00;;;;;;5092949;28;20613;-83
2022/11/25 01:16:38;;;;;;;6.40;5.83;;;6.10;1.00;;;;;;5095443;28;20462;-82
2022/11/25 01:19:07;;;;;;;5.73;5.13;;;6.20;1.00;;;;;;5096525;28;20464;-82
2022/11/25 01:21:36;;;;;;;5.70;5.30;;;6.40;1.00;;;;;;5102409;27;20463;-82
2022/11/25 01:24:05;;;;;;;6.40;5.90;;;6.20;99.90;;;;;;5094291;28;20537;-82
2022/11/25 01:26:35;;;;;;;5.40;5.20;;;6.20;99.90;;;;;;5097950;28;20506;-79
2022/11/25 01:29:05;;;;;;;6.37;5.80;;;6.30;99.90;;;;;;5092025;27;20461;-82
2022/11/25 01:31:35;;;;;;;6.03;5.67;;;6.30;99.90;;;;;;5096459;28;20441;-80
2022/11/25 01:34:06;;;;;;;5.90;5.50;;;6.30;1.00;;;;;;5098119;28;20576;-83
2022/11/25 01:36:35;;;;;;;6.37;5.77;;;6.10;1.00;;;;;;5097939;27;20453;-82
2022/11/25 01:39:04;;;;;;;5.90;5.60;;;6.00;1.00;;;;;;5092357;28;20452;-82
2022/11/25 01:41:34;;;;;;;6.30;5.90;;;6.10;1.00;;;;;;5088004;28;20476;-80
2022/11/25 01:44:07;;;;;;;6.30;5.77;;;5.90;8.40;;;;;;5089593;28;20485;-81
2022/11/25 01:46:56;;;;;;;6.07;5.67;;;5.80;99.90;;;;;;5083859;28;20493;-80
2022/11/25 01:49:30;;;;;;;5.70;5.40;;;5.80;99.90;;;;;;5093271;28;20510;-80
2022/11/25 01:52:06;;;;;;;6.03;5.63;;;5.80;1.00;;;;;;5094371;28;20535;-80
2022/11/25 01:54:41;;;;;;;6.43;6.07;;;5.80;1.00;;;;;;5092677;28;20468;-80
2022/11/25 01:57:14;;;;;;;5.73;5.37;;;5.60;1.00;;;;;;5095117;28;20469;-80
2022/11/25 01:59:46;;;;;;;5.40;5.20;;;5.40;78.70;;;;;;5092436;28;20772;-83
2022/11/25 02:02:15;;;;;;;6.03;5.50;;;5.40;99.90;;;;;;5093382;28;20449;-84
2022/11/25 02:04:46;;;;;;;6.37;6.00;;;5.40;99.90;;;;;;5098853;28;20554;-84
2022/11/25 02:07:22;;;;;;;6.17;5.80;;;5.40;99.90;;;;;;5091264;28;20442;-83
2022/11/25 02:09:50;;;;;;;6.17;5.87;;;5.30;1.00;;;;;;5098155;28;20448;-83
2022/11/25 02:12:21;;;;;;;5.93;5.73;;;5.30;99.90;;;;;;5097626;28;20524;-82
2022/11/25 02:14:51;;;;;;;6.20;5.67;;;5.20;99.90;;;;;;5096301;28;20512;-83
2022/11/25 02:17:20;;;;;;;6.03;5.53;;;5.30;99.90;;;;;;5089401;27;20568;-81
2022/11/25 02:19:58;;;;;;;6.03;5.53;;;5.30;1.00;;;;;;5090299;28;20508;-83
2022/11/25 02:22:40;;;;;;;6.43;5.93;;;5.30;1.00;;;;;;5090821;28;20438;-84
2022/11/25 02:25:15;;;;;;;8.33;6.40;;;5.20;99.90;;;;;;5094841;28;20486;-84
2022/11/25 02:27:46;;;;;;;6.00;5.67;;;5.20;1.00;;;;;;5092775;28;20453;-83
2022/11/25 02:30:14;;;;;;;6.97;6.47;;;5.30;1.00;;;;;;5099311;28;20476;-82
2022/11/25 02:32:46;;;;;;;7.03;6.53;;;5.40;99.90;;;;;;5093294;28;21001;-82
2022/11/25 02:35:33;;;;;;;7.63;6.50;;;5.30;1.00;;;;;;5094212;28;21069;-81
2022/11/25 02:38:07;;;;;;;6.60;6.10;;;5.30;99.90;;;;;;5095607;28;20565;-81
2022/11/25 02:40:40;;;;;;;6.80;6.30;;;5.20;1.00;;;;;;5091474;28;20445;-81
2022/11/25 02:43:09;;;;;;;7.17;6.77;;;5.20;99.90;;;;;;5092633;28;20495;-82
2022/11/25 02:45:56;;;;;;;6.63;6.17;;;5.20;1.00;;;;;;5094954;28;20509;-82
2022/11/25 02:48:25;;;;;;;5.93;5.63;;;5.10;99.90;;;;;;5090946;28;20474;-82
2022/11/25 02:51:15;;;;;;;6.17;5.80;;;5.00;2.10;;;;;;5094225;28;20454;-82
2022/11/25 02:53:43;;;;;;;6.77;6.20;;;5.00;99.90;;;;;;5096736;28;20453;-82
2022/11/25 02:56:16;;;;;;;6.47;5.60;;;5.00;99.90;;;;;;5091829;28;20936;-83
2022/11/25 02:58:44;;;;;;;5.70;5.30;;;4.90;77.60;;;;;;5090642;28;20883;-82
2022/11/25 03:01:12;;;;;;;6.07;5.60;;;4.90;1.00;;;;;;5097279;28;20449;-81
2022/11/25 03:03:41;;;;;;;6.22;5.82;;;4.90;1.00;;;;;;5098021;27;20449;-82
2022/11/25 03:06:09;;;;;;;6.37;5.90;;;4.90;99.90;;;;;;5096959;28;20199;-80
2022/11/25 03:08:38;;;;;;;7.00;6.30;;;4.90;99.90;;;;;;5094750;27;20520;-82
2022/11/25 03:11:06;;;;;;;6.30;5.73;;;5.00;1.00;;;;;;5098537;28;21133;-80
2022/11/25 03:13:36;;;;;;;6.93;6.33;;;5.00;1.00;;;;;;5097100;28;20457;-81
2022/11/25 03:16:05;;;;;;;6.43;6.03;;;4.90;1.00;;;;;;5093369;27;20469;-81
2022/11/25 03:18:33;;;;;;;7.30;6.70;;;5.00;99.90;;;;;;5094740;28;20460;-82
2022/11/25 03:21:01;;;;;;;7.30;6.60;;;5.00;99.90;;;;;;5095579;28;20820;-82
2022/11/25 03:23:30;;;;;;;6.90;6.50;;;4.90;99.90;;;;;;5099416;27;20446;-82
2022/11/25 03:25:58;;;;;;;8.80;7.90;;;5.00;99.90;;;;;;5093938;27;20484;-82
2022/11/25 03:28:26;;;;;;;7.37;6.77;;;5.10;1.00;;;;;;5098384;28;20676;-82
2022/11/25 03:30:56;;;;;;;7.10;6.57;;;5.00;1.00;;;;;;5093338;28;20464;-82
2022/11/25 03:33:24;;;;;;;7.13;6.60;;;5.00;99.90;;;;;;5100305;27;20450;-81
2022/11/25 03:35:52;;;;;;;7.90;7.27;;;4.90;1.00;;;;;;5095339;27;20462;-84
2022/11/25 03:38:20;;;;;;;11.80;9.87;;;4.90;1.00;;;;;;5098940;28;20461;-82
2022/11/25 03:40:49;;;;;;;8.20;7.50;;;5.10;99.90;;;;;;5095902;28;20513;-83
2022/11/25 03:43:17;;;;;;;8.00;7.50;;;5.00;99.90;;;;;;5092296;28;20539;-81
2022/11/25 03:45:48;;;;;;;6.80;6.20;;;5.00;99.90;;;;;;5091684;27;20573;-81
2022/11/25 03:48:18;;;;;;;7.73;7.30;;;4.90;1.00;;;;;;5095994;27;20586;-80
2022/11/25 03:50:48;;;;;;;6.23;5.70;;;4.90;1.00;;;;;;5097804;28;20448;-80
2022/11/25 03:53:16;;;;;;;6.68;6.28;;;4.90;99.90;;;;;;5101618;28;20445;-82
2022/11/25 03:55:47;;;;;;;5.77;5.50;;;4.80;32.40;;;;;;5097470;28;20611;-80
2022/11/25 03:58:15;;;;;;;7.13;6.43;;;4.90;99.90;;;;;;5099211;27;20517;-81
2022/11/25 04:00:43;;;;;;;6.90;6.20;;;4.90;1.00;;;;;;5095302;27;20442;-81
2022/11/25 04:03:11;;;;;;;9.57;5.90;;;4.80;1.00;;;;;;5095997;27;20984;-80
2022/11/25 04:05:41;;;;;;;6.20;5.57;;;4.70;64.20;;;;;;5095694;27;20489;-81
2022/11/25 04:08:09;;;;;;;6.97;6.37;;;4.80;1.00;;;;;;5092659;28;20449;-81
2022/11/25 04:10:38;;;;;;;6.40;5.90;;;4.70;27.00;;;;;;5095897;27;20468;-79
2022/11/25 04:13:05;;;;;;;6.57;5.97;;;4.70;99.90;;;;;;5090867;28;20461;-81
2022/11/25 04:15:33;;;;;;;6.75;6.25;;;4.90;99.90;;;;;;5090914;28;20469;-81
2022/11/25 04:18:01;;;;;;;7.03;6.43;;;4.80;1.00;;;;;;5097680;28;20694;-82
2022/11/25 04:20:29;;;;;;;7.00;6.40;;;5.00;56.80;;;;;;5094001;27;20196;-81
2022/11/25 04:22:59;;;;;;;6.70;6.13;;;5.30;99.90;;;;;;5086617;28;20211;-82
2022/11/25 04:25:27;;;;;;;7.67;7.10;;;5.40;99.90;;;;;;5092674;27;21266;-82
2022/11/25 04:27:55;;;;;;;7.33;5.90;;;5.50;1.00;;;;;;5091394;27;20461;-81
2022/11/25 04:30:25;;;;;;;8.50;6.70;;;5.50;99.90;;;;;;5087825;28;20980;-80
2022/11/25 04:32:53;;;;;;;6.83;6.33;;;5.50;99.90;;;;;;5087021;28;20464;-79
2022/11/25 04:35:21;;;;;;;6.17;5.80;;;5.50;99.90;;;;;;5088068;27;20473;-81
2022/11/25 04:37:49;;;;;;;11.63;6.37;;;5.50;99.90;;;;;;5090301;27;20472;-82
2022/11/25 04:40:19;;;;;;;6.17;5.87;;;5.70;99.90;;;;;;5089583;27;20445;-81
2022/11/25 04:42:47;;;;;;;6.90;6.50;;;5.60;1.00;;;;;;5093150;27;20477;-81
2022/11/25 04:45:17;;;;;;;6.90;6.47;;;5.30;99.90;;;;;;5094051;27;20519;-81
2022/11/25 04:47:51;;;;;;;6.67;6.27;;;5.40;1.00;;;;;;5094481;28;20811;-80
2022/11/25 04:50:22;;;;;;;6.30;5.80;;;5.60;23.50;;;;;;5089500;28;20446;-83
2022/11/25 04:52:50;;;;;;;6.40;6.00;;;5.60;27.60;;;;;;5090522;27;20445;-81
2022/11/25 04:55:20;;;;;;;6.00;5.70;;;5.60;99.90;;;;;;5088976;28;20514;-80
2022/11/25 04:57:48;;;;;;;7.10;6.60;;;5.50;99.90;;;;;;5090298;28;20476;-80
2022/11/25 05:00:16;;;;;;;7.07;6.37;;;5.50;34.70;;;;;;5091397;27;20453;-80
2022/11/25 05:02:44;;;;;;;7.10;6.40;;;5.60;1.00;;;;;;5087889;28;20465;-81
2022/11/25 05:05:13;;;;;;;12.30;7.90;;;5.60;99.90;;;;;;5083116;28;20527;-81
2022/11/25 05:07:41;;;;;;;7.67;6.97;;;5.60;1.00;;;;;;5093972;27;21032;-81
2022/11/25 05:10:10;;;;;;;7.20;6.70;;;5.60;1.00;;;;;;5091809;28;20543;-81
2022/11/25 05:12:40;;;;;;;8.47;7.93;;;5.60;99.90;;;;;;5088381;28;20473;-83
2022/11/25 05:15:10;;;;;;;9.50;6.87;;;5.60;99.90;;;;;;5098448;28;20495;-82
2022/11/25 05:17:39;;;;;;;7.63;7.13;;;5.40;99.90;;;;;;5094886;28;20879;-81
2022/11/25 05:20:08;;;;;;;7.00;6.60;;;5.50;1.00;;;;;;5093726;28;20580;-82
2022/11/25 05:22:37;;;;;;;7.37;6.70;;;5.40;1.00;;;;;;5094943;27;20524;-78
2022/11/25 05:25:05;;;;;;;6.63;6.20;;;5.50;1.00;;;;;;5087934;27;20489;-81
2022/11/25 05:27:34;;;;;;;6.97;6.47;;;5.50;99.90;;;;;;5085092;28;20481;-80
2022/11/25 05:30:04;;;;;;;7.27;6.37;;;5.40;1.00;;;;;;5089963;28;20450;-83
2022/11/25 05:32:32;;;;;;;6.03;5.63;;;5.50;28.60;;;;;;5089241;27;20453;-81
2022/11/25 05:35:00;;;;;;;6.32;5.93;;;5.40;99.90;;;;;;5087098;28;20852;-80
2022/11/25 05:37:28;;;;;;;6.63;6.13;;;5.40;99.90;;;;;;5089818;27;20792;-79
2022/11/25 05:39:56;;;;;;;8.13;7.60;;;5.30;1.00;;;;;;5096390;28;20552;-81
2022/11/25 05:42:24;;;;;;;6.30;5.80;;;5.00;99.90;;;;;;5089175;28;20672;-81
2022/11/25 05:44:52;;;;;;;5.90;5.60;;;4.90;93.50;;;;;;5090963;28;21226;-81
2022/11/25 05:47:22;;;;;;;6.20;5.60;;;4.90;1.00;;;;;;5081425;28;20446;-81
2022/11/25 05:49:50;;;;;;;6.47;6.07;;;4.90;99.90;;;;;;5095361;27;20521;-80
2022/11/25 05:52:18;;;;;;;6.13;5.70;;;4.80;99.90;;;;;;5093550;27;20514;-79
2022/11/25 05:54:47;;;;;;;7.60;6.90;;;4.80;95.60;;;;;;5092807;27;20525;-80
2022/11/25 05:57:15;;;;;;;6.40;6.10;;;4.70;99.90;;;;;;5091833;28;20984;-79
2022/11/25 05:59:43;;;;;;;7.00;6.50;;;4.70;1.00;;;;;;5085134;28;20457;-80
2022/11/25 06:02:11;;;;;;;7.20;6.63;;;4.70;1.00;;;;;;5091637;28;20461;-80
2022/11/25 06:04:42;;;;;;;6.67;6.20;;;4.70;1.00;;;;;;5095028;27;20489;-79
2022/11/25 06:07:11;;;;;;;6.60;6.20;;;4.70;1.00;;;;;;5088750;28;20515;-80
2022/11/25 06:09:39;;;;;;;6.37;5.97;;;4.70;99.90;;;;;;5092803;28;20477;-81
2022/11/25 06:12:07;;;;;;;5.83;5.53;;;4.60;99.90;;;;;;5084122;28;21142;-79
2022/11/25 06:14:36;;;;;;;6.57;6.07;;;4.70;99.90;;;;;;5073494;28;20484;-80
2022/11/25 06:17:04;;;;;;;6.90;6.50;;;4.70;99.90;;;;;;5072905;28;20526;-80
2022/11/25 06:19:32;;;;;;;6.80;6.40;;;4.70;1.00;;;;;;5083842;28;20916;-81
2022/11/25 06:22:02;;;;;;;6.77;6.27;;;4.70;99.90;;;;;;5090592;28;20457;-79
2022/11/25 06:24:30;;;;;;;6.20;5.80;;;4.70;1.00;;;;;;5088347;28;20456;-80
2022/11/25 06:26:59;;;;;;;6.27;5.97;;;4.80;1.00;;;;;;5087682;28;20476;-79
2022/11/25 06:29:27;;;;;;;6.67;6.20;;;4.70;1.00;;;;;;5086793;28;20465;-82
2022/11/25 06:31:55;;;;;;;6.87;6.37;;;4.60;1.00;;;;;;5097503;27;20438;-82
2022/11/25 06:34:24;;;;;;;6.30;6.00;;;4.60;99.90;;;;;;5091876;28;20995;-81
2022/11/25 06:36:52;;;;;;;6.90;6.30;;;4.80;1.00;;;;;;5089945;28;20854;-80
2022/11/25 06:39:22;;;;;;;7.07;6.35;;;5.10;99.90;;;;;;5094768;28;21266;-82
2022/11/25 06:41:50;;;;;;;6.73;6.33;;;5.30;99.90;;;;;;5091967;28;20203;-81
2022/11/25 06:44:18;;;;;;;6.83;6.30;;;5.30;1.00;;;;;;5094224;28;20477;-81
2022/11/25 06:46:46;;;;;;;6.97;6.67;;;5.20;1.00;;;;;;5091390;28;20572;-82
2022/11/25 06:49:15;;;;;;;6.37;5.87;;;5.20;1.00;;;;;;5096240;28;20450;-81
2022/11/25 06:51:43;;;;;;;6.70;6.30;;;5.20;1.30;;;;;;5094376;28;20879;-81
2022/11/25 06:54:11;;;;;;;6.03;5.73;;;5.40;98.00;;;;;;5093369;28;20828;-80
2022/11/25 06:56:41;;;;;;;6.23;5.87;;;5.50;99.90;;;;;;5093408;28;20817;-82
2022/11/25 06:59:09;;;;;;;5.93;5.40;;;5.60;99.90;;;;;;5093017;28;20460;-81
2022/11/25 07:01:38;;;;;;;7.00;6.60;;;5.80;1.00;;;;;;5095311;28;20468;-81
2022/11/25 07:04:06;;;;;;;6.13;5.83;;;5.90;99.90;;;;;;5090659;28;20914;-83
2022/11/25 07:06:34;;;;;;;6.03;5.73;;;5.90;99.90;;;;;;5095992;28;20463;-82
2022/11/25 07:09:03;;;;;;;6.97;6.27;;;5.90;99.90;;;;;;5091982;28;20468;-81
2022/11/25 07:11:34;;;;;;;10.93;9.87;;;5.80;99.90;;;;;;5094118;28;20444;-81
2022/11/25 07:14:06;;;;;;;10.90;9.80;;;5.70;99.90;;;;;;5095498;28;20465;-82
2022/11/25 07:16:34;;;;;;;8.53;7.80;;;5.80;1.00;;;;;;5095658;28;20450;-81
2022/11/25 07:19:03;;;;;;;6.50;6.20;;;5.80;77.20;;;;;;5095913;28;20793;-81
2022/11/25 07:21:36;;;;;;;6.60;6.20;;;5.90;1.00;;;;;;5095306;28;20799;-81
2022/11/25 07:24:07;;;;;;;5.90;5.50;;;5.90;1.00;;;;;;5092319;28;20460;-81
2022/11/25 07:26:38;;;;;;;6.17;5.70;;;6.00;1.00;;;;;;5092960;28;21062;-80
2022/11/25 07:29:09;;;;;;;6.70;6.10;;;6.00;99.90;;;;;;5091785;28;20773;-81
2022/11/25 07:31:58;;;;;;;6.60;6.23;;;6.10;99.90;;;;;;5093047;28;20446;-82
2022/11/25 07:34:26;;;;;;;6.40;6.00;;;6.10;1.00;;;;;;5091943;28;20466;-81
2022/11/25 07:36:54;;;;;;;6.80;6.50;;;6.00;99.90;;;;;;5095719;28;20932;-80
2022/11/25 07:39:23;;;;;;;6.80;6.27;;;6.00;1.00;;;;;;5095021;28;20445;-83
2022/11/25 07:41:53;;;;;;;7.33;6.67;;;6.00;99.90;;;;;;5094653;28;20553;-81
2022/11/25 07:44:22;;;;;;;6.83;6.23;;;6.10;1.00;;;;;;5094545;28;20481;-80
2022/11/25 07:46:51;;;;;;;8.68;8.23;;;6.10;99.90;;;;;;5084251;28;20523;-79
2022/11/25 07:49:21;;;;;;;8.00;7.47;;;6.00;99.90;;;;;;5097523;28;20203;-79
2022/11/25 07:51:52;;;;;;;8.00;7.50;;;6.20;99.90;;;;;;5101572;28;20990;-81
2022/11/25 07:54:21;;;;;;;7.13;6.83;;;6.20;99.90;;;;;;5097655;27;20504;-79
2022/11/25 07:56:50;;;;;;;9.00;8.43;;;6.20;1.00;;;;;;5094231;28;20464;-81
2022/11/25 07:59:21;;;;;;;7.20;6.90;;;6.20;29.30;;;;;;5096653;27;20501;-81
2022/11/25 08:01:51;;;;;;;8.27;7.20;;;6.20;99.90;;;;;;5096887;28;21113;-81
2022/11/25 08:04:20;;;;;;;7.77;7.30;;;6.20;99.90;;;;;;5100992;27;20476;-81
2022/11/25 08:06:50;;;;;;;8.63;7.90;;;6.10;99.90;;;;;;5096898;28;20480;-80
2022/11/25 08:09:19;;;;;;;8.33;7.83;;;6.10;99.90;;;;;;5097891;27;20459;-80
2022/11/25 08:11:48;;;;;;;7.87;7.27;;;6.10;1.00;;;;;;5098563;27;20552;-81
2022/11/25 08:14:17;;;;;;;7.63;7.13;;;6.10;1.00;;;;;;5086064;28;20477;-80
2022/11/25 08:16:45;;;;;;;7.60;7.10;;;6.20;99.90;;;;;;5083381;28;20459;-80
2022/11/25 08:19:16;;;;;;;8.30;7.80;;;6.20;99.90;;;;;;5084050;28;20464;-80
2022/11/25 08:21:46;;;;;;;8.27;7.87;;;6.10;99.90;;;;;;5088892;28;20509;-79
2022/11/25 08:24:16;;;;;;;7.87;7.47;;;6.10;99.90;;;;;;5079420;27;20474;-79
2022/11/25 08:26:45;;;;;;;7.67;7.27;;;6.30;99.90;;;;;;5084524;28;20482;-79
2022/11/25 08:29:15;;;;;;;7.63;7.23;;;6.40;99.90;;;;;;5088164;28;20545;-81
2022/11/25 08:31:44;;;;;;;8.30;7.50;;;6.50;99.90;;;;;;5093489;28;20981;-80
2022/11/25 08:34:19;;;;;;;7.70;7.20;;;6.50;99.90;;;;;;5094817;28;21030;-81
2022/11/25 08:36:48;;;;;;;8.47;7.87;;;6.60;99.90;;;;;;5096792;28;21302;-81
2022/11/25 08:39:18;;;;;;;7.20;6.90;;;6.70;99.90;;;;;;5092299;28;20454;-80
2022/11/25 08:42:06;;;;;;;7.90;7.30;;;6.90;99.90;;;;;;5089709;28;20473;-77
2022/11/25 08:44:35;;;;;;;7.87;7.47;;;6.90;99.90;;;;;;5089969;28;20987;-80
2022/11/25 08:47:04;;;;;;;7.60;7.23;;;7.10;1.00;;;;;;5091495;28;20575;-79
2022/11/25 08:49:33;;;;;;;7.97;7.57;;;7.20;1.00;;;;;;5088959;28;21563;-79
2022/11/25 08:52:08;;;;;;;8.63;8.23;;;7.30;99.90;;;;;;5090282;28;20450;-80
2022/11/25 08:54:37;;;;;;;9.53;9.03;;;7.40;99.90;;;;;;5092484;28;20508;-81
2022/11/25 08:57:05;;;;;;;7.70;7.40;;;7.50;1.00;;;;;;5090083;28;20452;-82
2022/11/25 08:59:34;;;;;;;8.47;7.87;;;7.70;5.50;;;;;;5093799;28;21334;-81
2022/11/25 09:02:03;;;;;;;9.47;8.77;;;7.70;19.60;;;;;;5092775;28;20443;-79
2022/11/25 09:04:33;;;;;;;8.33;7.93;;;7.70;43.90;;;;;;5087268;28;20519;-81
2022/11/25 09:07:03;;;;;;;9.30;8.80;;;7.60;1.00;;;;;;5094480;28;20463;-80
2022/11/25 09:09:32;;;;;;;8.73;8.33;;;7.60;1.00;;;;;;5090519;28;20890;-81
2022/11/25 09:12:00;;;;;;;9.43;8.63;;;7.50;93.20;;;;;;5106562;27;20467;-80
2022/11/25 09:14:29;;;;;;;9.50;8.80;;;7.50;99.90;;;;;;5088339;28;21062;-79
2022/11/25 09:16:57;;;;;;;9.00;8.50;;;7.60;99.90;;;;;;5089259;28;20451;-81
2022/11/25 09:19:25;;;;;;;9.83;9.13;;;7.50;99.90;;;;;;5095442;27;20451;-80
2022/11/25 09:21:55;;;;;;;14.13;9.90;;;7.60;99.90;;;;;;5085672;27;20493;-80
2022/11/25 09:24:23;;;;;;;9.57;9.17;;;7.60;97.90;;;;;;5095089;27;20496;-81
2022/11/25 09:26:52;;;;;;;10.93;9.90;;;7.60;1.00;;;;;;5093585;28;20448;-79
2022/11/25 09:29:20;;;;;;;11.03;10.03;;;7.70;99.90;;;;;;5095612;28;20476;-80
2022/11/25 09:31:49;;;;;;;11.30;10.70;;;7.80;99.90;;;;;;5095698;28;20463;-80
2022/11/25 09:34:22;;;;;;;11.77;10.87;;;7.80;1.00;;;;;;5090771;28;20473;-79
2022/11/25 09:36:50;;;;;;;12.27;11.57;;;7.90;1.00;;;;;;5091698;28;20462;-81
2022/11/25 09:39:20;;;;;;;11.20;10.40;;;7.90;99.90;;;;;;5086341;27;20590;-78
2022/11/25 09:47:46;;;;;;;10.93;10.40;;;7.90;99.90;;;;;;5096411;28;20491;-80
2022/11/25 09:50:30;;;;;;;10.97;10.20;;;8.00;83.40;;;;;;5104964;28;20463;-79
2022/11/25 09:53:10;;;;;;;11.60;10.80;;;8.00;1.00;;;;;;5095335;28;20446;-79
2022/11/25 09:55:45;;;;;;;9.63;9.23;;;8.00;99.90;;;;;;5094686;28;20476;-79
2022/11/25 09:58:23;;;;;;;10.73;10.03;;;8.20;99.90;;;;;;5092238;27;20465;-79
2022/11/25 10:00:53;;;;;;;11.30;10.53;;;8.40;28.40;;;;;;5094093;27;20463;-79
2022/11/25 10:03:33;;;;;;;10.60;10.10;;;8.50;99.90;;;;;;5093697;27;20540;-78
2022/11/25 10:06:06;;;;;;;10.17;9.57;;;8.70;1.00;;;;;;5096190;28;20476;-79
2022/11/25 10:08:39;;;;;;;12.07;11.37;;;8.90;1.00;;;;;;5099029;27;20470;-80
2022/11/25 10:11:18;;;;;;;10.83;10.03;;;9.20;99.90;;;;;;5098990;27;20513;-80
2022/11/25 10:13:54;;;;;;;10.07;9.27;;;9.20;99.90;;;;;;5094959;28;20471;-79
2022/11/25 10:16:35;;;;;;;11.00;10.50;;;9.50;99.90;;;;;;5099423;28;21090;-79
2022/11/25 10:19:19;;;;;;;9.90;9.50;;;10.40;99.90;;;;;;5104085;27;20448;-80
2022/11/25 10:21:48;;;;;;;10.60;10.00;;;11.20;1.00;;;;;;5092715;28;20954;-79
2022/11/25 10:24:17;;;;;;;9.27;8.67;;;11.90;1.00;;;;;;5092600;28;20468;-80
2022/11/25 10:26:53;;;;;;;9.07;8.53;;;11.40;1.00;;;;;;5092734;28;20516;-80
2022/11/25 10:29:27;;;;;;;9.00;8.33;;;10.90;1.00;;;;;;5088681;28;20550;-80
2022/11/25 10:32:06;;;;;;;10.40;9.50;;;10.80;1.00;;;;;;5088339;28;20590;-80
2022/11/25 10:34:40;;;;;;;9.93;9.33;;;10.90;1.00;;;;;;5084450;28;20822;-79
2022/11/25 10:37:18;;;;;;;9.17;8.67;;;10.80;1.00;;;;;;5086840;28;20449;-80
2022/11/25 10:39:46;;;;;;;9.00;8.40;;;10.20;1.00;;;;;;5085268;28;20449;-79
2022/11/25 10:42:20;;;;;;;8.90;8.50;;;10.00;1.00;;;;;;5090618;28;20466;-80
2022/11/25 10:44:49;;;;;;;9.17;8.57;;;9.80;1.00;;;;;;5085249;28;20479;-79
2022/11/25 10:47:31;;;;;;;9.23;8.80;;;9.70;1.00;;;;;;5086728;28;20486;-81
2022/11/25 10:50:17;;;;;;;8.83;8.30;;;9.80;1.00;;;;;;5088664;28;20464;-80
2022/11/25 10:52:55;;;;;;;9.07;8.60;;;9.60;1.00;;;;;;5095343;28;20863;-81
2022/11/25 10:55:25;;;;;;;10.13;9.53;;;9.50;1.00;;;;;;5087797;28;20473;-79
2022/11/25 10:57:55;;;;;;;9.30;8.90;;;9.50;1.00;;;;;;5087669;28;20851;-79
2022/11/25 11:00:31;;;;;;;9.70;9.30;;;9.40;41.40;;;;;;5094935;28;20793;-78
2022/11/25 11:03:12;;;;;;;9.97;9.10;;;9.40;50.10;;;;;;5085918;28;20453;-79
2022/11/25 11:05:46;;;;;;;9.43;9.00;;;9.50;99.90;;;;;;5090314;28;20482;-79
2022/11/25 11:08:18;;;;;;;8.80;8.50;;;9.40;99.90;;;;;;5087004;28;21082;-79
2022/11/25 11:10:47;;;;;;;9.37;9.07;;;9.30;99.90;;;;;;5089853;28;20529;-81
2022/11/25 11:13:32;;;;;;;9.87;9.47;;;9.40;99.90;;;;;;5089741;28;20955;-80
2022/11/25 11:16:00;;;;;;;9.33;8.93;;;9.30;99.90;;;;;;5083168;28;20494;-80
2022/11/25 11:18:39;;;;;;;9.93;9.50;;;9.40;99.90;;;;;;5085225;28;20500;-79
2022/11/25 11:21:21;;;;;;;9.23;8.93;;;9.30;99.90;;;;;;5088333;28;20532;-80
2022/11/25 11:23:50;;;;;;;10.27;9.57;;;9.30;99.90;;;;;;5087907;28;20874;-81
2022/11/25 11:26:23;;;;;;;9.73;9.23;;;9.30;99.90;;;;;;5091785;27;20462;-80
2022/11/25 11:29:04;;;;;;;10.13;9.43;;;9.30;99.90;;;;;;5094842;28;20539;-79
2022/11/25 11:31:45;;;;;;;9.20;8.87;;;9.30;1.00;;;;;;5097622;27;20482;-79
2022/11/25 11:34:34;;;;;;;9.40;9.00;;;9.30;1.00;;;;;;5094849;27;21237;-79
2022/11/25 11:37:23;;;;;;;10.57;9.90;;;9.30;1.00;;;;;;5096552;28;20831;-80
2022/11/25 11:40:08;;;;;;;10.10;9.70;;;9.30;1.00;;;;;;5094864;28;20951;-77
2022/11/25 11:42:46;;;;;;;10.13;9.83;;;9.30;1.00;;;;;;5090155;28;20543;-79
2022/11/25 11:45:34;;;;;;;10.73;10.10;;;9.30;1.00;;;;;;5092297;28;20479;-80
2022/11/25 11:48:12;;;;;;;10.77;10.20;;;9.30;1.00;;;;;;5088926;28;20497;-80
2022/11/25 11:50:43;;;;;;;10.80;10.03;;;9.40;1.00;;;;;;5093477;27;21053;-80
2022/11/25 11:53:21;;;;;;;11.70;10.80;;;9.30;99.90;;;;;;5096924;27;20460;-80
2022/11/25 11:55:59;;;;;;;10.20;9.80;;;9.30;99.90;;;;;;5103457;28;20475;-80
2022/11/25 11:59:01;;;;;;;10.47;10.07;;;9.20;99.90;;;;;;5094939;27;20472;-81
2022/11/25 12:01:48;;;;;;;10.60;10.10;;;9.30;99.90;;;;;;5090320;28;20456;-79
2022/11/25 12:04:22;;;;;;;10.27;9.97;;;9.30;99.90;;;;;;5097463;27;20479;-80
2022/11/25 12:07:00;;;;;;;11.20;10.67;;;9.30;1.00;;;;;;5093940;28;20459;-80
2022/11/25 12:09:31;;;;;;;10.00;9.57;;;9.40;99.90;;;;;;5092194;27;20490;-80
2022/11/25 12:12:04;;;;;;;10.50;9.90;;;9.40;1.00;;;;;;5090715;27;21037;-80
2022/11/25 12:14:39;;;;;;;11.50;10.90;;;9.50;1.00;;;;;;5086956;27;20467;-78
2022/11/25 12:17:17;;;;;;;11.07;10.63;;;9.50;99.90;;;;;;5089123;27;20801;-78
2022/11/25 12:19:55;;;;;;;10.23;9.80;;;9.50;1.00;;;;;;5089816;28;20454;-81
2022/11/25 12:22:28;;;;;;;10.90;10.40;;;9.60;99.90;;;;;;5094146;27;20456;-80
2022/11/25 12:25:04;;;;;;;12.00;11.30;;;9.60;99.90;;;;;;5090817;28;20465;-80
2022/11/25 12:27:37;;;;;;;11.20;10.70;;;9.60;1.00;;;;;;5088098;28;21113;-79
2022/11/25 12:30:07;;;;;;;11.63;10.77;;;9.60;1.00;;;;;;5091494;28;21008;-77
2022/11/25 12:33:03;;;;;;;11.30;10.80;;;9.60;1.00;;;;;;5093581;28;20545;-80
2022/11/25 12:35:41;;;;;;;11.77;11.20;;;9.70;1.00;;;;;;5087784;28;21322;-79
2022/11/25 12:38:25;;;;;;;11.60;11.10;;;9.60;1.00;;;;;;5092185;28;20456;-80
2022/11/25 12:41:02;;;;;;;12.47;11.97;;;9.60;99.90;;;;;;5089520;28;20990;-80
2022/11/25 12:43:38;;;;;;;12.73;12.13;;;9.60;1.00;;;;;;5085530;28;20469;-80
2022/11/25 12:46:15;;;;;;;12.63;12.00;;;9.60;1.00;;;;;;5086979;27;21129;-79
2022/11/25 12:48:44;;;;;;;13.13;12.33;;;9.60;56.80;;;;;;5086348;28;20590;-79
2022/11/25 12:51:25;;;;;;;11.93;11.43;;;9.60;1.00;;;;;;5095668;27;21298;-80
2022/11/25 12:54:06;;;;;;;12.57;11.87;;;9.60;1.00;;;;;;5089328;28;20553;-78
2022/11/25 12:56:48;;;;;;;12.30;11.70;;;9.60;95.70;;;;;;5087817;27;20457;-80
2022/11/25 12:59:35;;;;;;;13.13;12.53;;;9.60;99.90;;;;;;5091084;27;20452;-79
2022/11/25 13:02:27;;;;;;;13.00;12.30;;;9.50;99.90;;;;;;5094384;28;20488;-80
2022/11/25 13:05:22;;;;;;;12.60;12.00;;;9.50;99.90;;;;;;5086562;28;20475;-80
2022/11/25 13:08:27;;;;;;;14.27;13.67;;;9.50;1.00;;;;;;5090830;28;20467;-79
2022/11/25 13:11:19;;;;;;;14.00;13.10;;;9.40;99.90;;;;;;5090204;28;20487;-80
2022/11/25 13:13:53;;;;;;;12.37;11.93;;;9.40;1.00;;;;;;5089636;27;20462;-80
2022/11/25 13:16:23;;;;;;;12.93;12.33;;;9.50;1.00;;;;;;5094768;28;21635;-79
2022/11/25 13:18:52;;;;;;;12.70;12.00;;;9.50;1.00;;;;;;5091760;28;21267;-80
2022/11/25 13:21:23;;;;;;;12.50;11.87;;;9.50;99.90;;;;;;5095240;27;20454;-80
2022/11/25 13:23:54;;;;;;;12.80;12.30;;;9.50;1.00;;;;;;5092665;28;20466;-80
2022/11/25 13:27:01;;;;;;;13.70;13.00;;;9.50;11.90;;;;;;5095815;28;20471;-80
2022/11/25 13:30:03;;;;;;;13.83;13.10;;;9.50;27.70;;;;;;5093060;27;21010;-81
2022/11/25 13:32:40;;;;;;;14.20;13.50;;;9.50;1.00;;;;;;5092810;28;20537;-77
2022/11/25 13:35:51;;;;;;;13.97;13.20;;;9.60;99.90;;;;;;5083976;28;20467;-80